sensor_id;sensor_type;location;lat;lon;timestamp;P1;durP1;ratioP1;P2;durP2;ratioP2
28772;SDS011;15925;51.222;5.678;2023-02-23T00:01:38;36.38;;;13.00;;
28772;SDS011;15925;51.222;5.678;2023-02-23T00:04:06;39.78;;;13.93;;
28772;SDS011;15925;51.222;5.678;2023-02-23T00:06:33;33.63;;;14.00;;
28772;SDS011;15925;51.222;5.678;2023-02-23T00:09:00;34.15;;;13.13;;
28772;SDS011;15925;51.222;5.678;2023-02-23T00:11:31;29.98;;;11.18;;
28772;SDS011;15925;51.222;5.678;2023-02-23T00:13:58;37.20;;;14.35;;
28772;SDS011;15925;51.222;5.678;2023-02-23T00:16:25;33.53;;;12.85;;
28772;SDS011;15925;51.222;5.678;2023-02-23T00:18:52;33.53;;;12.82;;
28772;SDS011;15925;51.222;5.678;2023-02-23T00:21:21;31.73;;;12.45;;
28772;SDS011;15925;51.222;5.678;2023-02-23T00:23:50;34.30;;;12.98;;
28772;SDS011;15925;51.222;5.678;2023-02-23T00:26:18;38.17;;;12.88;;
28772;SDS011;15925;51.222;5.678;2023-02-23T00:28:53;37.20;;;14.70;;
28772;SDS011;15925;51.222;5.678;2023-02-23T00:31:20;37.20;;;13.93;;
28772;SDS011;15925;51.222;5.678;2023-02-23T00:33:49;26.65;;;12.10;;
28772;SDS011;15925;51.222;5.678;2023-02-23T00:36:18;36.42;;;13.75;;
28772;SDS011;15925;51.222;5.678;2023-02-23T00:38:46;31.35;;;11.70;;
28772;SDS011;15925;51.222;5.678;2023-02-23T00:41:13;34.17;;;13.65;;
28772;SDS011;15925;51.222;5.678;2023-02-23T00:43:44;39.85;;;13.32;;
28772;SDS011;15925;51.222;5.678;2023-02-23T00:46:16;41.63;;;15.25;;
28772;SDS011;15925;51.222;5.678;2023-02-23T00:48:45;37.20;;;12.88;;
28772;SDS011;15925;51.222;5.678;2023-02-23T00:53:38;39.03;;;13.18;;
28772;SDS011;15925;51.222;5.678;2023-02-23T00:56:06;42.65;;;14.60;;
28772;SDS011;15925;51.222;5.678;2023-02-23T00:58:35;43.05;;;16.65;;
28772;SDS011;15925;51.222;5.678;2023-02-23T01:01:04;40.80;;;16.27;;
28772;SDS011;15925;51.222;5.678;2023-02-23T01:03:31;45.00;;;17.00;;
28772;SDS011;15925;51.222;5.678;2023-02-23T01:06:00;30.87;;;14.13;;
28772;SDS011;15925;51.222;5.678;2023-02-23T01:08:31;37.83;;;14.65;;
28772;SDS011;15925;51.222;5.678;2023-02-23T01:10:58;35.25;;;15.60;;
28772;SDS011;15925;51.222;5.678;2023-02-23T01:13:30;35.95;;;14.00;;
28772;SDS011;15925;51.222;5.678;2023-02-23T01:15:56;36.60;;;14.55;;
28772;SDS011;15925;51.222;5.678;2023-02-23T01:18:24;37.22;;;14.63;;
28772;SDS011;15925;51.222;5.678;2023-02-23T01:20:50;30.93;;;14.97;;
28772;SDS011;15925;51.222;5.678;2023-02-23T01:23:16;42.50;;;15.15;;
28772;SDS011;15925;51.222;5.678;2023-02-23T01:25:45;34.47;;;15.68;;
28772;SDS011;15925;51.222;5.678;2023-02-23T01:28:12;38.17;;;14.98;;
28772;SDS011;15925;51.222;5.678;2023-02-23T01:30:38;42.73;;;14.53;;
28772;SDS011;15925;51.222;5.678;2023-02-23T01:33:06;36.10;;;14.73;;
28772;SDS011;15925;51.222;5.678;2023-02-23T01:35:32;30.67;;;14.23;;
28772;SDS011;15925;51.222;5.678;2023-02-23T01:37:58;47.35;;;15.30;;
28772;SDS011;15925;51.222;5.678;2023-02-23T01:40:24;30.23;;;12.77;;
28772;SDS011;15925;51.222;5.678;2023-02-23T01:42:58;40.42;;;14.38;;
28772;SDS011;15925;51.222;5.678;2023-02-23T01:45:39;36.85;;;13.38;;
28772;SDS011;15925;51.222;5.678;2023-02-23T01:48:08;39.88;;;14.90;;
28772;SDS011;15925;51.222;5.678;2023-02-23T01:50:42;35.33;;;12.98;;
28772;SDS011;15925;51.222;5.678;2023-02-23T01:53:14;37.15;;;12.85;;
28772;SDS011;15925;51.222;5.678;2023-02-23T01:55:41;37.80;;;14.75;;
28772;SDS011;15925;51.222;5.678;2023-02-23T01:58:11;32.95;;;13.88;;
28772;SDS011;15925;51.222;5.678;2023-02-23T02:00:48;35.05;;;12.93;;
28772;SDS011;15925;51.222;5.678;2023-02-23T02:03:22;38.10;;;15.40;;
28772;SDS011;15925;51.222;5.678;2023-02-23T02:05:55;36.50;;;15.45;;
28772;SDS011;15925;51.222;5.678;2023-02-23T02:08:22;42.60;;;17.08;;
28772;SDS011;15925;51.222;5.678;2023-02-23T02:10:50;41.92;;;16.27;;
28772;SDS011;15925;51.222;5.678;2023-02-23T02:13:21;36.90;;;13.88;;
28772;SDS011;15925;51.222;5.678;2023-02-23T02:19:42;45.03;;;17.02;;
28772;SDS011;15925;51.222;5.678;2023-02-23T02:25:37;41.58;;;15.80;;
28772;SDS011;15925;51.222;5.678;2023-02-23T02:28:29;40.30;;;13.77;;
28772;SDS011;15925;51.222;5.678;2023-02-23T02:37:09;40.33;;;16.38;;
28772;SDS011;15925;51.222;5.678;2023-02-23T02:39:54;35.55;;;13.20;;
28772;SDS011;15925;51.222;5.678;2023-02-23T02:45:21;44.60;;;15.18;;
28772;SDS011;15925;51.222;5.678;2023-02-23T02:48:14;43.33;;;15.77;;
28772;SDS011;15925;51.222;5.678;2023-02-23T02:54:10;41.88;;;15.90;;
28772;SDS011;15925;51.222;5.678;2023-02-23T02:56:40;35.55;;;15.43;;
28772;SDS011;15925;51.222;5.678;2023-02-23T02:59:12;43.35;;;15.27;;
28772;SDS011;15925;51.222;5.678;2023-02-23T03:02:04;49.10;;;17.05;;
28772;SDS011;15925;51.222;5.678;2023-02-23T03:04:49;40.53;;;16.10;;
28772;SDS011;15925;51.222;5.678;2023-02-23T03:07:35;47.95;;;17.55;;
28772;SDS011;15925;51.222;5.678;2023-02-23T03:10:55;32.22;;;13.30;;
28772;SDS011;15925;51.222;5.678;2023-02-23T03:17:43;39.25;;;15.48;;
28772;SDS011;15925;51.222;5.678;2023-02-23T03:23:39;32.75;;;14.15;;
28772;SDS011;15925;51.222;5.678;2023-02-23T03:26:44;46.92;;;15.52;;
28772;SDS011;15925;51.222;5.678;2023-02-23T03:29:57;54.58;;;14.82;;
28772;SDS011;15925;51.222;5.678;2023-02-23T03:35:21;42.10;;;15.25;;
28772;SDS011;15925;51.222;5.678;2023-02-23T03:38:18;47.80;;;15.98;;
28772;SDS011;15925;51.222;5.678;2023-02-23T03:41:09;51.33;;;16.77;;
28772;SDS011;15925;51.222;5.678;2023-02-23T03:43:59;47.22;;;16.83;;
28772;SDS011;15925;51.222;5.678;2023-02-23T03:46:48;48.60;;;17.63;;
28772;SDS011;15925;51.222;5.678;2023-02-23T03:49:35;49.08;;;16.85;;
28772;SDS011;15925;51.222;5.678;2023-02-23T03:52:23;40.47;;;14.80;;
28772;SDS011;15925;51.222;5.678;2023-02-23T03:55:17;44.50;;;14.82;;
28772;SDS011;15925;51.222;5.678;2023-02-23T03:58:08;42.70;;;14.02;;
28772;SDS011;15925;51.222;5.678;2023-02-23T04:00:57;49.05;;;16.20;;
28772;SDS011;15925;51.222;5.678;2023-02-23T04:03:44;41.47;;;15.55;;
28772;SDS011;15925;51.222;5.678;2023-02-23T04:06:32;40.83;;;15.40;;
28772;SDS011;15925;51.222;5.678;2023-02-23T04:09:20;37.38;;;14.10;;
28772;SDS011;15925;51.222;5.678;2023-02-23T04:12:06;43.22;;;15.85;;
28772;SDS011;15925;51.222;5.678;2023-02-23T04:15:03;40.42;;;15.68;;
28772;SDS011;15925;51.222;5.678;2023-02-23T04:20:01;32.65;;;13.45;;
28772;SDS011;15925;51.222;5.678;2023-02-23T04:22:27;45.28;;;14.55;;
28772;SDS011;15925;51.222;5.678;2023-02-23T04:24:53;39.83;;;15.97;;
28772;SDS011;15925;51.222;5.678;2023-02-23T04:27:19;35.50;;;15.30;;
28772;SDS011;15925;51.222;5.678;2023-02-23T04:29:44;48.73;;;15.47;;
28772;SDS011;15925;51.222;5.678;2023-02-23T04:32:14;49.37;;;14.70;;
28772;SDS011;15925;51.222;5.678;2023-02-23T04:34:42;41.72;;;13.88;;
28772;SDS011;15925;51.222;5.678;2023-02-23T04:37:08;36.20;;;16.38;;
28772;SDS011;15925;51.222;5.678;2023-02-23T04:39:34;39.90;;;13.80;;
28772;SDS011;15925;51.222;5.678;2023-02-23T04:42:00;44.15;;;15.85;;
28772;SDS011;15925;51.222;5.678;2023-02-23T04:44:26;58.85;;;16.42;;
28772;SDS011;15925;51.222;5.678;2023-02-23T04:46:52;40.27;;;13.57;;
28772;SDS011;15925;51.222;5.678;2023-02-23T04:49:18;41.60;;;13.97;;
28772;SDS011;15925;51.222;5.678;2023-02-23T04:51:44;39.33;;;14.48;;
28772;SDS011;15925;51.222;5.678;2023-02-23T04:54:10;34.33;;;13.87;;
28772;SDS011;15925;51.222;5.678;2023-02-23T04:56:36;46.43;;;14.13;;
28772;SDS011;15925;51.222;5.678;2023-02-23T04:59:03;37.10;;;14.55;;
28772;SDS011;15925;51.222;5.678;2023-02-23T05:01:29;39.55;;;15.40;;
28772;SDS011;15925;51.222;5.678;2023-02-23T05:03:56;40.10;;;14.30;;
28772;SDS011;15925;51.222;5.678;2023-02-23T05:06:24;49.08;;;15.85;;
28772;SDS011;15925;51.222;5.678;2023-02-23T05:08:50;52.67;;;15.98;;
28772;SDS011;15925;51.222;5.678;2023-02-23T05:11:16;44.73;;;13.40;;
28772;SDS011;15925;51.222;5.678;2023-02-23T05:13:42;47.07;;;17.73;;
28772;SDS011;15925;51.222;5.678;2023-02-23T05:16:08;52.78;;;15.30;;
28772;SDS011;15925;51.222;5.678;2023-02-23T05:18:35;58.83;;;18.13;;
28772;SDS011;15925;51.222;5.678;2023-02-23T05:21:04;47.78;;;16.73;;
28772;SDS011;15925;51.222;5.678;2023-02-23T05:23:32;53.42;;;17.50;;
28772;SDS011;15925;51.222;5.678;2023-02-23T05:26:02;49.67;;;17.92;;
28772;SDS011;15925;51.222;5.678;2023-02-23T05:28:31;53.22;;;17.77;;
28772;SDS011;15925;51.222;5.678;2023-02-23T05:30:57;57.20;;;17.58;;
28772;SDS011;15925;51.222;5.678;2023-02-23T05:33:23;51.90;;;14.40;;
28772;SDS011;15925;51.222;5.678;2023-02-23T05:35:49;54.50;;;18.37;;
28772;SDS011;15925;51.222;5.678;2023-02-23T05:38:14;45.70;;;16.60;;
28772;SDS011;15925;51.222;5.678;2023-02-23T05:40:40;47.38;;;14.75;;
28772;SDS011;15925;51.222;5.678;2023-02-23T05:43:06;42.93;;;17.40;;
28772;SDS011;15925;51.222;5.678;2023-02-23T05:45:32;41.27;;;16.60;;
28772;SDS011;15925;51.222;5.678;2023-02-23T05:47:58;53.20;;;19.30;;
28772;SDS011;15925;51.222;5.678;2023-02-23T05:50:24;40.80;;;16.60;;
28772;SDS011;15925;51.222;5.678;2023-02-23T05:52:51;51.15;;;16.08;;
28772;SDS011;15925;51.222;5.678;2023-02-23T05:55:17;61.38;;;16.17;;
28772;SDS011;15925;51.222;5.678;2023-02-23T05:57:42;49.60;;;17.10;;
28772;SDS011;15925;51.222;5.678;2023-02-23T06:00:10;51.10;;;15.07;;
28772;SDS011;15925;51.222;5.678;2023-02-23T06:02:37;44.67;;;14.65;;
28772;SDS011;15925;51.222;5.678;2023-02-23T06:05:04;62.70;;;17.63;;
28772;SDS011;15925;51.222;5.678;2023-02-23T06:07:30;46.33;;;16.63;;
28772;SDS011;15925;51.222;5.678;2023-02-23T06:09:56;43.35;;;18.27;;
28772;SDS011;15925;51.222;5.678;2023-02-23T06:12:22;56.23;;;16.67;;
28772;SDS011;15925;51.222;5.678;2023-02-23T06:14:48;61.03;;;17.87;;
28772;SDS011;15925;51.222;5.678;2023-02-23T06:17:15;63.67;;;17.50;;
28772;SDS011;15925;51.222;5.678;2023-02-23T06:22:07;54.65;;;17.48;;
28772;SDS011;15925;51.222;5.678;2023-02-23T06:24:33;58.53;;;18.90;;
28772;SDS011;15925;51.222;5.678;2023-02-23T06:26:59;63.33;;;18.43;;
28772;SDS011;15925;51.222;5.678;2023-02-23T06:29:25;55.63;;;15.65;;
28772;SDS011;15925;51.222;5.678;2023-02-23T06:31:51;51.95;;;18.90;;
28772;SDS011;15925;51.222;5.678;2023-02-23T06:34:16;54.53;;;16.53;;
28772;SDS011;15925;51.222;5.678;2023-02-23T06:36:43;53.00;;;17.75;;
28772;SDS011;15925;51.222;5.678;2023-02-23T06:39:09;55.30;;;18.67;;
28772;SDS011;15925;51.222;5.678;2023-02-23T06:44:01;59.30;;;19.70;;
28772;SDS011;15925;51.222;5.678;2023-02-23T06:46:28;63.88;;;19.75;;
28772;SDS011;15925;51.222;5.678;2023-02-23T06:48:54;64.07;;;19.53;;
28772;SDS011;15925;51.222;5.678;2023-02-23T06:51:21;54.53;;;17.50;;
28772;SDS011;15925;51.222;5.678;2023-02-23T06:53:48;61.00;;;18.15;;
28772;SDS011;15925;51.222;5.678;2023-02-23T06:56:13;66.93;;;20.13;;
28772;SDS011;15925;51.222;5.678;2023-02-23T06:58:39;57.87;;;18.83;;
28772;SDS011;15925;51.222;5.678;2023-02-23T07:01:07;61.78;;;18.02;;
28772;SDS011;15925;51.222;5.678;2023-02-23T07:05:59;62.92;;;19.27;;
28772;SDS011;15925;51.222;5.678;2023-02-23T07:08:25;74.97;;;18.90;;
28772;SDS011;15925;51.222;5.678;2023-02-23T07:10:51;60.83;;;18.87;;
28772;SDS011;15925;51.222;5.678;2023-02-23T07:13:17;53.05;;;16.55;;
28772;SDS011;15925;51.222;5.678;2023-02-23T07:15:44;69.20;;;19.50;;
28772;SDS011;15925;51.222;5.678;2023-02-23T07:18:10;67.33;;;18.50;;
28772;SDS011;15925;51.222;5.678;2023-02-23T07:20:35;59.03;;;17.63;;
28772;SDS011;15925;51.222;5.678;2023-02-23T07:23:01;63.40;;;17.80;;
28772;SDS011;15925;51.222;5.678;2023-02-23T07:25:27;58.15;;;17.17;;
28772;SDS011;15925;51.222;5.678;2023-02-23T07:27:56;53.15;;;18.38;;
28772;SDS011;15925;51.222;5.678;2023-02-23T07:30:23;62.92;;;17.60;;
28772;SDS011;15925;51.222;5.678;2023-02-23T07:32:49;60.58;;;19.10;;
28772;SDS011;15925;51.222;5.678;2023-02-23T07:35:16;69.35;;;19.98;;
28772;SDS011;15925;51.222;5.678;2023-02-23T07:37:43;56.45;;;17.20;;
28772;SDS011;15925;51.222;5.678;2023-02-23T07:40:09;46.63;;;16.27;;
28772;SDS011;15925;51.222;5.678;2023-02-23T07:42:36;54.20;;;18.42;;
28772;SDS011;15925;51.222;5.678;2023-02-23T07:45:03;49.50;;;15.77;;
28772;SDS011;15925;51.222;5.678;2023-02-23T07:47:29;63.95;;;18.55;;
28772;SDS011;15925;51.222;5.678;2023-02-23T07:49:58;62.97;;;19.45;;
28772;SDS011;15925;51.222;5.678;2023-02-23T07:52:26;68.47;;;18.17;;
28772;SDS011;15925;51.222;5.678;2023-02-23T07:54:52;52.53;;;15.48;;
28772;SDS011;15925;51.222;5.678;2023-02-23T07:57:19;63.13;;;20.00;;
28772;SDS011;15925;51.222;5.678;2023-02-23T07:59:46;54.90;;;17.52;;
28772;SDS011;15925;51.222;5.678;2023-02-23T08:02:12;52.65;;;17.50;;
28772;SDS011;15925;51.222;5.678;2023-02-23T08:07:05;63.30;;;18.10;;
28772;SDS011;15925;51.222;5.678;2023-02-23T08:09:32;63.00;;;18.85;;
28772;SDS011;15925;51.222;5.678;2023-02-23T08:11:59;57.97;;;16.73;;
28772;SDS011;15925;51.222;5.678;2023-02-23T08:14:25;55.50;;;18.25;;
28772;SDS011;15925;51.222;5.678;2023-02-23T08:16:51;58.17;;;18.73;;
28772;SDS011;15925;51.222;5.678;2023-02-23T08:19:17;62.83;;;19.17;;
28772;SDS011;15925;51.222;5.678;2023-02-23T08:21:47;58.50;;;18.17;;
28772;SDS011;15925;51.222;5.678;2023-02-23T08:26:39;63.03;;;17.50;;
28772;SDS011;15925;51.222;5.678;2023-02-23T08:29:06;59.15;;;20.65;;
28772;SDS011;15925;51.222;5.678;2023-02-23T08:31:32;61.35;;;18.70;;
28772;SDS011;15925;51.222;5.678;2023-02-23T08:33:58;55.67;;;15.98;;
28772;SDS011;15925;51.222;5.678;2023-02-23T08:36:24;70.82;;;19.40;;
28772;SDS011;15925;51.222;5.678;2023-02-23T08:38:51;53.97;;;17.92;;
28772;SDS011;15925;51.222;5.678;2023-02-23T08:41:18;57.33;;;16.95;;
28772;SDS011;15925;51.222;5.678;2023-02-23T08:46:10;55.53;;;17.48;;
28772;SDS011;15925;51.222;5.678;2023-02-23T08:48:37;49.03;;;17.05;;
28772;SDS011;15925;51.222;5.678;2023-02-23T08:51:04;57.72;;;17.33;;
28772;SDS011;15925;51.222;5.678;2023-02-23T08:53:31;56.28;;;17.17;;
28772;SDS011;15925;51.222;5.678;2023-02-23T08:55:58;58.17;;;18.27;;
28772;SDS011;15925;51.222;5.678;2023-02-23T08:58:25;45.35;;;13.75;;
28772;SDS011;15925;51.222;5.678;2023-02-23T09:00:56;59.08;;;17.65;;
28772;SDS011;15925;51.222;5.678;2023-02-23T09:03:23;52.45;;;14.68;;
28772;SDS011;15925;51.222;5.678;2023-02-23T09:05:50;37.75;;;13.60;;
28772;SDS011;15925;51.222;5.678;2023-02-23T09:08:17;35.53;;;12.55;;
28772;SDS011;15925;51.222;5.678;2023-02-23T09:10:43;58.67;;;15.38;;
28772;SDS011;15925;51.222;5.678;2023-02-23T09:13:10;41.97;;;13.85;;
28772;SDS011;15925;51.222;5.678;2023-02-23T09:18:04;38.03;;;14.45;;
28772;SDS011;15925;51.222;5.678;2023-02-23T09:20:31;37.47;;;12.60;;
28772;SDS011;15925;51.222;5.678;2023-02-23T09:22:57;54.95;;;16.27;;
28772;SDS011;15925;51.222;5.678;2023-02-23T09:25:23;41.85;;;13.80;;
28772;SDS011;15925;51.222;5.678;2023-02-23T09:27:50;50.15;;;14.13;;
28772;SDS011;15925;51.222;5.678;2023-02-23T09:30:19;45.33;;;14.57;;
28772;SDS011;15925;51.222;5.678;2023-02-23T09:32:46;43.08;;;12.93;;
28772;SDS011;15925;51.222;5.678;2023-02-23T09:35:13;37.08;;;11.50;;
28772;SDS011;15925;51.222;5.678;2023-02-23T09:37:42;37.00;;;11.70;;
28772;SDS011;15925;51.222;5.678;2023-02-23T09:40:13;41.75;;;12.00;;
28772;SDS011;15925;51.222;5.678;2023-02-23T09:50:41;39.47;;;10.90;;
28772;SDS011;15925;51.222;5.678;2023-02-23T09:53:33;27.13;;;9.82;;
28772;SDS011;15925;51.222;5.678;2023-02-23T09:56:01;36.55;;;10.07;;
28772;SDS011;15925;51.222;5.678;2023-02-23T09:58:37;31.92;;;10.50;;
28772;SDS011;15925;51.222;5.678;2023-02-23T10:11:50;34.83;;;10.93;;
28772;SDS011;15925;51.222;5.678;2023-02-23T10:22:49;20.45;;;7.55;;
28772;SDS011;15925;51.222;5.678;2023-02-23T10:25:18;24.27;;;7.57;;
28772;SDS011;15925;51.222;5.678;2023-02-23T10:27:52;28.33;;;9.05;;
28772;SDS011;15925;51.222;5.678;2023-02-23T10:30:22;17.02;;;7.07;;
28772;SDS011;15925;51.222;5.678;2023-02-23T10:35:29;19.95;;;6.25;;
28772;SDS011;15925;51.222;5.678;2023-02-23T10:37:56;24.42;;;7.32;;
28772;SDS011;15925;51.222;5.678;2023-02-23T10:40:25;23.52;;;8.38;;
28772;SDS011;15925;51.222;5.678;2023-02-23T10:42:54;30.20;;;7.70;;
28772;SDS011;15925;51.222;5.678;2023-02-23T10:45:23;27.40;;;8.45;;
28772;SDS011;15925;51.222;5.678;2023-02-23T10:48:01;19.00;;;6.88;;
28772;SDS011;15925;51.222;5.678;2023-02-23T10:50:31;28.73;;;8.48;;
28772;SDS011;15925;51.222;5.678;2023-02-23T10:53:09;22.90;;;8.82;;
28772;SDS011;15925;51.222;5.678;2023-02-23T10:55:40;22.40;;;8.73;;
28772;SDS011;15925;51.222;5.678;2023-02-23T11:01:03;35.92;;;10.27;;
28772;SDS011;15925;51.222;5.678;2023-02-23T11:03:32;28.40;;;9.98;;
28772;SDS011;15925;51.222;5.678;2023-02-23T11:06:06;25.48;;;8.15;;
28772;SDS011;15925;51.222;5.678;2023-02-23T11:08:56;31.60;;;9.50;;
28772;SDS011;15925;51.222;5.678;2023-02-23T11:11:23;25.83;;;10.23;;
28772;SDS011;15925;51.222;5.678;2023-02-23T11:13:53;29.05;;;9.77;;
28772;SDS011;15925;51.222;5.678;2023-02-23T11:19:02;28.35;;;8.60;;
28772;SDS011;15925;51.222;5.678;2023-02-23T11:21:30;36.80;;;11.93;;
28772;SDS011;15925;51.222;5.678;2023-02-23T11:23:59;27.48;;;8.85;;
28772;SDS011;15925;51.222;5.678;2023-02-23T11:26:32;27.98;;;10.38;;
28772;SDS011;15925;51.222;5.678;2023-02-23T11:31:57;35.22;;;9.48;;
28772;SDS011;15925;51.222;5.678;2023-02-23T11:36:59;32.15;;;8.95;;
28772;SDS011;15925;51.222;5.678;2023-02-23T11:39:30;37.78;;;12.40;;
28772;SDS011;15925;51.222;5.678;2023-02-23T11:42:30;30.88;;;10.75;;
28772;SDS011;15925;51.222;5.678;2023-02-23T11:45:13;38.15;;;12.30;;
28772;SDS011;15925;51.222;5.678;2023-02-23T11:47:45;25.90;;;9.70;;
28772;SDS011;15925;51.222;5.678;2023-02-23T11:53:10;28.40;;;10.90;;
28772;SDS011;15925;51.222;5.678;2023-02-23T11:55:39;28.20;;;9.80;;
28772;SDS011;15925;51.222;5.678;2023-02-23T12:01:07;28.63;;;10.48;;
28772;SDS011;15925;51.222;5.678;2023-02-23T12:03:52;26.60;;;10.95;;
28772;SDS011;15925;51.222;5.678;2023-02-23T12:06:39;29.42;;;9.43;;
28772;SDS011;15925;51.222;5.678;2023-02-23T12:09:25;30.38;;;9.70;;
28772;SDS011;15925;51.222;5.678;2023-02-23T12:14:31;35.00;;;11.05;;
28772;SDS011;15925;51.222;5.678;2023-02-23T12:17:37;37.30;;;10.60;;
28772;SDS011;15925;51.222;5.678;2023-02-23T12:20:03;34.40;;;10.25;;
28772;SDS011;15925;51.222;5.678;2023-02-23T12:22:37;28.23;;;9.43;;
28772;SDS011;15925;51.222;5.678;2023-02-23T12:25:16;34.58;;;10.70;;
28772;SDS011;15925;51.222;5.678;2023-02-23T12:38:03;30.95;;;11.05;;
28772;SDS011;15925;51.222;5.678;2023-02-23T12:40:36;25.95;;;8.85;;
28772;SDS011;15925;51.222;5.678;2023-02-23T12:43:10;21.40;;;8.80;;
28772;SDS011;15925;51.222;5.678;2023-02-23T12:45:42;30.92;;;10.50;;
28772;SDS011;15925;51.222;5.678;2023-02-23T12:50:57;27.95;;;9.50;;
28772;SDS011;15925;51.222;5.678;2023-02-23T12:53:28;22.48;;;8.68;;
28772;SDS011;15925;51.222;5.678;2023-02-23T12:56:21;27.42;;;8.43;;
28772;SDS011;15925;51.222;5.678;2023-02-23T13:01:56;23.77;;;8.80;;
28772;SDS011;15925;51.222;5.678;2023-02-23T13:07:12;31.35;;;8.98;;
28772;SDS011;15925;51.222;5.678;2023-02-23T13:28:13;28.90;;;11.43;;
28772;SDS011;15925;51.222;5.678;2023-02-23T13:30:42;34.78;;;10.27;;
28772;SDS011;15925;51.222;5.678;2023-02-23T13:33:18;25.88;;;10.23;;
28772;SDS011;15925;51.222;5.678;2023-02-23T13:35:50;25.58;;;8.93;;
28772;SDS011;15925;51.222;5.678;2023-02-23T13:38:19;28.58;;;9.90;;
28772;SDS011;15925;51.222;5.678;2023-02-23T13:40:56;24.50;;;9.00;;
28772;SDS011;15925;51.222;5.678;2023-02-23T13:46:21;23.98;;;9.13;;
28772;SDS011;15925;51.222;5.678;2023-02-23T13:52:39;22.15;;;7.57;;
28772;SDS011;15925;51.222;5.678;2023-02-23T13:55:31;26.17;;;7.45;;
28772;SDS011;15925;51.222;5.678;2023-02-23T13:57:54;19.25;;;7.43;;
28772;SDS011;15925;51.222;5.678;2023-02-23T14:00:27;25.00;;;7.75;;
28772;SDS011;15925;51.222;5.678;2023-02-23T14:02:54;20.08;;;6.75;;
28772;SDS011;15925;51.222;5.678;2023-02-23T14:05:21;17.90;;;7.85;;
28772;SDS011;15925;51.222;5.678;2023-02-23T14:07:54;13.40;;;4.75;;
28772;SDS011;15925;51.222;5.678;2023-02-23T14:10:36;15.40;;;5.65;;
28772;SDS011;15925;51.222;5.678;2023-02-23T14:20:53;18.37;;;6.40;;
28772;SDS011;15925;51.222;5.678;2023-02-23T14:25:48;16.00;;;6.13;;
28772;SDS011;15925;51.222;5.678;2023-02-23T14:28:34;22.98;;;7.07;;
28772;SDS011;15925;51.222;5.678;2023-02-23T14:36:26;17.15;;;5.88;;
28772;SDS011;15925;51.222;5.678;2023-02-23T14:47:01;24.42;;;5.97;;
28772;SDS011;15925;51.222;5.678;2023-02-23T14:49:32;16.33;;;6.35;;
28772;SDS011;15925;51.222;5.678;2023-02-23T14:52:06;21.83;;;6.90;;
28772;SDS011;15925;51.222;5.678;2023-02-23T14:54:35;22.10;;;6.85;;
28772;SDS011;15925;51.222;5.678;2023-02-23T14:57:03;21.98;;;6.95;;
28772;SDS011;15925;51.222;5.678;2023-02-23T14:59:38;15.25;;;5.10;;
28772;SDS011;15925;51.222;5.678;2023-02-23T15:02:11;21.55;;;6.22;;
28772;SDS011;15925;51.222;5.678;2023-02-23T15:04:45;19.05;;;6.65;;
28772;SDS011;15925;51.222;5.678;2023-02-23T15:07:15;18.30;;;6.25;;
28772;SDS011;15925;51.222;5.678;2023-02-23T15:09:52;9.68;;;4.38;;
28772;SDS011;15925;51.222;5.678;2023-02-23T15:12:24;11.88;;;5.10;;
28772;SDS011;15925;51.222;5.678;2023-02-23T15:14:58;20.05;;;4.65;;
28772;SDS011;15925;51.222;5.678;2023-02-23T15:17:26;14.93;;;5.35;;
28772;SDS011;15925;51.222;5.678;2023-02-23T15:19:57;12.18;;;4.80;;
28772;SDS011;15925;51.222;5.678;2023-02-23T15:22:30;10.82;;;4.05;;
28772;SDS011;15925;51.222;5.678;2023-02-23T15:25:02;15.30;;;5.38;;
28772;SDS011;15925;51.222;5.678;2023-02-23T15:27:39;10.93;;;3.63;;
28772;SDS011;15925;51.222;5.678;2023-02-23T15:30:28;6.78;;;3.25;;
28772;SDS011;15925;51.222;5.678;2023-02-23T15:32:59;10.70;;;4.47;;
28772;SDS011;15925;51.222;5.678;2023-02-23T15:35:32;17.05;;;4.88;;
28772;SDS011;15925;51.222;5.678;2023-02-23T15:38:06;17.77;;;5.15;;
28772;SDS011;15925;51.222;5.678;2023-02-23T15:40:33;8.10;;;4.15;;
28772;SDS011;15925;51.222;5.678;2023-02-23T15:42:59;9.45;;;4.15;;
28772;SDS011;15925;51.222;5.678;2023-02-23T15:47:54;8.95;;;3.92;;
28772;SDS011;15925;51.222;5.678;2023-02-23T15:50:31;11.25;;;4.20;;
28772;SDS011;15925;51.222;5.678;2023-02-23T15:53:05;18.08;;;4.63;;
28772;SDS011;15925;51.222;5.678;2023-02-23T15:55:38;12.23;;;3.95;;
28772;SDS011;15925;51.222;5.678;2023-02-23T15:58:27;12.27;;;4.22;;
28772;SDS011;15925;51.222;5.678;2023-02-23T16:01:22;10.57;;;3.85;;
28772;SDS011;15925;51.222;5.678;2023-02-23T16:04:01;19.38;;;4.82;;
28772;SDS011;15925;51.222;5.678;2023-02-23T16:06:33;10.63;;;4.32;;
28772;SDS011;15925;51.222;5.678;2023-02-23T16:14:24;5.53;;;3.15;;
28772;SDS011;15925;51.222;5.678;2023-02-23T16:16:57;11.75;;;4.38;;
28772;SDS011;15925;51.222;5.678;2023-02-23T16:19:24;37.28;;;4.68;;
28772;SDS011;15925;51.222;5.678;2023-02-23T16:21:54;11.32;;;3.72;;
28772;SDS011;15925;51.222;5.678;2023-02-23T16:24:22;9.63;;;3.03;;
28772;SDS011;15925;51.222;5.678;2023-02-23T16:26:53;5.88;;;2.90;;
28772;SDS011;15925;51.222;5.678;2023-02-23T16:31:59;10.85;;;3.65;;
28772;SDS011;15925;51.222;5.678;2023-02-23T16:34:31;7.57;;;3.13;;
28772;SDS011;15925;51.222;5.678;2023-02-23T16:37:10;5.43;;;2.70;;
28772;SDS011;15925;51.222;5.678;2023-02-23T16:39:43;6.93;;;2.65;;
28772;SDS011;15925;51.222;5.678;2023-02-23T16:42:29;5.85;;;2.50;;
28772;SDS011;15925;51.222;5.678;2023-02-23T16:44:59;7.05;;;2.60;;
28772;SDS011;15925;51.222;5.678;2023-02-23T16:47:40;12.48;;;2.92;;
28772;SDS011;15925;51.222;5.678;2023-02-23T16:50:21;8.05;;;2.85;;
28772;SDS011;15925;51.222;5.678;2023-02-23T16:52:51;8.13;;;2.85;;
28772;SDS011;15925;51.222;5.678;2023-02-23T16:55:25;7.13;;;2.70;;
28772;SDS011;15925;51.222;5.678;2023-02-23T16:57:56;5.32;;;1.88;;
28772;SDS011;15925;51.222;5.678;2023-02-23T17:00:25;7.40;;;3.22;;
28772;SDS011;15925;51.222;5.678;2023-02-23T17:02:56;5.32;;;1.80;;
28772;SDS011;15925;51.222;5.678;2023-02-23T17:05:24;9.25;;;2.80;;
28772;SDS011;15925;51.222;5.678;2023-02-23T17:07:51;4.57;;;2.50;;
28772;SDS011;15925;51.222;5.678;2023-02-23T17:10:19;17.08;;;3.15;;
28772;SDS011;15925;51.222;5.678;2023-02-23T17:12:51;8.10;;;3.28;;
28772;SDS011;15925;51.222;5.678;2023-02-23T17:15:18;10.65;;;3.10;;
28772;SDS011;15925;51.222;5.678;2023-02-23T17:17:44;9.43;;;3.10;;
28772;SDS011;15925;51.222;5.678;2023-02-23T17:20:10;6.70;;;2.73;;
28772;SDS011;15925;51.222;5.678;2023-02-23T17:22:42;6.68;;;3.63;;
28772;SDS011;15925;51.222;5.678;2023-02-23T17:25:08;8.63;;;3.17;;
28772;SDS011;15925;51.222;5.678;2023-02-23T17:27:35;8.35;;;2.90;;
28772;SDS011;15925;51.222;5.678;2023-02-23T17:32:28;6.03;;;2.35;;
28772;SDS011;15925;51.222;5.678;2023-02-23T17:34:54;12.77;;;3.22;;
28772;SDS011;15925;51.222;5.678;2023-02-23T17:37:20;10.13;;;3.83;;
28772;SDS011;15925;51.222;5.678;2023-02-23T17:39:46;5.55;;;2.45;;
28772;SDS011;15925;51.222;5.678;2023-02-23T17:42:15;8.07;;;2.95;;
28772;SDS011;15925;51.222;5.678;2023-02-23T17:44:42;5.63;;;2.50;;
28772;SDS011;15925;51.222;5.678;2023-02-23T17:47:08;15.27;;;3.17;;
28772;SDS011;15925;51.222;5.678;2023-02-23T17:49:34;8.97;;;3.23;;
28772;SDS011;15925;51.222;5.678;2023-02-23T17:52:00;7.37;;;2.70;;